Time;durP1;ratioP1;P1;durP2;ratioP2;P2;SDS_P1;SDS_P2;PMS_P1;PMS_P2;Temp;Humidity;BMP_temperature;BMP_pressure;BME280_temperature;BME280_humidity;BME280_pressure;Samples;Min_cycle;Max_cycle;Signal;HPM_P1;HPM_P2
2023/06/16 00:01:09;;;;;;;2.73;2.53;;;22.10;64.10;;;22.56;nan;100643.13;4965013;28;21071;-66
2023/06/16 00:03:37;;;;;;;3.50;2.87;;;22.00;64.30;;;22.50;nan;100633.25;4991499;28;20654;-67
2023/06/16 00:06:14;;;;;;;2.67;2.47;;;22.00;64.50;;;22.40;nan;100632.72;4996205;28;20633;-67
2023/06/16 00:08:44;;;;;;;7.83;3.40;;;21.90;64.90;;;22.30;nan;100627.69;4993999;28;20633;-67
2023/06/16 00:11:14;;;;;;;5.20;2.43;;;21.80;65.10;;;22.25;nan;100632.72;4993312;28;20635;-68
2023/06/16 00:13:41;;;;;;;2.87;2.67;;;21.70;65.40;;;22.17;nan;100626.69;5005042;28;20637;-68
2023/06/16 00:16:09;;;;;;;2.80;2.60;;;21.70;65.60;;;22.12;nan;100629.09;4995430;28;20641;-66
2023/06/16 00:18:40;;;;;;;4.60;2.80;;;21.60;65.90;;;22.08;nan;100630.47;4987800;28;20634;-66
2023/06/16 00:21:19;;;;;;;2.83;2.60;;;21.50;65.80;;;22.02;nan;100626.72;4968737;28;21224;-66
2023/06/16 00:23:46;;;;;;;2.30;2.20;;;21.50;65.80;;;21.96;nan;100622.13;4987667;28;20634;-67
2023/06/16 00:26:13;;;;;;;2.53;2.30;;;21.40;65.90;;;21.90;nan;100622.88;4991320;28;20622;-67
2023/06/16 00:28:41;;;;;;;2.77;2.57;;;21.40;66.20;;;21.88;nan;100626.72;4972817;28;20638;-68
2023/06/16 00:31:08;;;;;;;2.80;2.43;;;21.40;66.30;;;21.84;nan;100636.06;4989154;28;20644;-67
2023/06/16 00:33:35;;;;;;;2.37;2.17;;;21.30;66.70;;;21.77;nan;100621.81;4988803;28;20617;-66
2023/06/16 00:36:02;;;;;;;3.00;2.70;;;21.30;66.90;;;21.74;nan;100628.34;4990328;28;20658;-67
2023/06/16 00:38:30;;;;;;;8.37;3.30;;;21.20;67.10;;;21.66;nan;100619.63;5010519;28;21208;-68
2023/06/16 00:40:57;;;;;;;4.60;2.60;;;21.10;67.40;;;21.61;nan;100625.50;4982734;28;21253;-66
2023/06/16 00:43:24;;;;;;;3.40;2.60;;;21.10;67.60;;;21.55;nan;100619.06;4989941;28;21179;-66
2023/06/16 00:45:51;;;;;;;3.10;2.83;;;21.00;67.80;;;21.53;nan;100623.72;4990916;28;20661;-66
2023/06/16 00:48:19;;;;;;;3.50;3.00;;;21.00;67.90;;;21.50;nan;100621.44;4982439;28;21044;-66
2023/06/16 00:50:47;;;;;;;3.87;3.47;;;21.00;68.10;;;21.45;nan;100626.47;5002140;28;20638;-66
2023/06/16 00:53:15;;;;;;;2.40;2.30;;;20.90;68.50;;;21.35;nan;100623.25;4989217;28;20702;-67
2023/06/16 00:55:43;;;;;;;2.33;2.23;;;20.90;68.90;;;21.34;nan;100616.28;4986500;28;20732;-65
2023/06/16 00:58:10;;;;;;;2.80;2.60;;;20.80;69.00;;;21.25;nan;100617.34;4990744;28;20611;-67
2023/06/16 01:00:38;;;;;;;3.33;3.10;;;20.80;69.40;;;21.25;nan;100624.50;4984284;28;20670;-68
2023/06/16 01:03:08;;;;;;;2.80;2.60;;;20.70;69.30;;;21.18;nan;100627.03;4989164;28;21237;-66
2023/06/16 01:05:36;;;;;;;2.90;2.60;;;20.70;69.60;;;21.14;nan;100631.06;4987527;28;20654;-67
2023/06/16 01:08:35;;;;;;;2.80;2.60;;;20.70;69.80;;;21.13;nan;100628.56;5008181;28;20638;-66
2023/06/16 01:11:36;;;;;;;2.90;2.70;;;20.60;69.90;;;21.07;nan;100623.97;5002834;28;20628;-67
2023/06/16 01:14:22;;;;;;;4.20;2.97;;;20.60;70.10;;;21.04;nan;100625.16;4992061;28;20703;-67
2023/06/16 01:16:51;;;;;;;2.73;2.53;;;20.60;70.20;;;21.01;nan;100622.84;4982751;28;21184;-66
2023/06/16 01:19:37;;;;;;;5.83;2.30;;;20.50;70.60;;;21.01;nan;100622.00;4990903;28;20618;-68
2023/06/16 01:22:18;;;;;;;4.63;2.70;;;20.50;70.50;;;21.02;nan;100623.66;4992896;28;20645;-67
2023/06/16 01:24:47;;;;;;;2.33;2.13;;;20.50;70.40;;;20.98;nan;100619.69;5010891;28;20665;-65
2023/06/16 01:27:21;;;;;;;3.43;2.60;;;20.40;70.40;;;20.96;nan;100629.66;5013542;28;20621;-67
2023/06/16 01:29:51;;;;;;;4.20;2.90;;;20.50;70.50;;;20.94;nan;100629.84;4988176;28;21234;-68
2023/06/16 01:32:20;;;;;;;3.40;3.00;;;20.40;70.60;;;20.83;nan;100632.91;4980738;28;20633;-66
2023/06/16 01:34:48;;;;;;;6.17;3.50;;;20.30;70.80;;;20.72;nan;100636.78;4979471;28;21275;-67
2023/06/16 01:37:15;;;;;;;3.03;2.53;;;20.20;71.10;;;20.61;nan;100631.06;4976416;28;20630;-68
2023/06/16 01:39:45;;;;;;;2.87;2.60;;;20.10;71.50;;;20.48;nan;100622.84;4994342;28;20630;-66
2023/06/16 01:42:13;;;;;;;2.23;2.10;;;20.10;71.60;;;20.40;nan;100631.66;4981004;28;20685;-67
2023/06/16 01:44:42;;;;;;;3.17;2.87;;;20.00;71.80;;;20.26;nan;100631.56;5006177;28;21541;-67
2023/06/16 01:47:09;;;;;;;2.57;2.40;;;19.80;71.90;;;20.15;nan;100632.75;4994698;28;21197;-67
2023/06/16 01:49:38;;;;;;;3.03;2.73;;;19.70;72.30;;;20.07;nan;100633.59;4989992;28;21133;-67
2023/06/16 01:52:07;;;;;;;2.90;2.60;;;19.70;72.40;;;20.02;nan;100635.09;4979949;28;20642;-68
2023/06/16 01:54:34;;;;;;;3.10;2.80;;;19.60;72.60;;;19.98;nan;100633.78;4983755;28;20670;-68
2023/06/16 01:57:01;;;;;;;3.13;2.93;;;19.60;72.90;;;19.92;nan;100637.97;4990720;28;20648;-67
2023/06/16 01:59:28;;;;;;;2.60;2.40;;;19.50;73.00;;;19.85;nan;100636.97;4982668;28;20638;-67
2023/06/16 02:02:05;;;;;;;2.93;2.63;;;19.40;72.90;;;19.76;nan;100637.19;4998904;28;20668;-68
2023/06/16 02:04:35;;;;;;;2.93;2.73;;;19.40;73.30;;;19.73;nan;100630.41;4975715;28;20666;-68
2023/06/16 02:07:10;;;;;;;2.87;2.10;;;19.30;73.20;;;19.67;nan;100627.59;5001683;28;21464;-66
2023/06/16 02:09:40;;;;;;;3.37;3.10;;;19.20;73.40;;;19.62;nan;100632.56;4976031;28;20644;-67
2023/06/16 02:12:11;;;;;;;2.80;2.60;;;19.20;73.60;;;19.59;nan;100638.22;5005240;28;20644;-68
2023/06/16 02:14:41;;;;;;;2.70;2.50;;;19.10;73.60;;;19.53;nan;100631.75;4986443;28;20685;-67
2023/06/16 02:17:09;;;;;;;4.87;3.00;;;19.10;73.70;;;19.46;nan;100637.88;5001312;28;20653;-67
2023/06/16 02:19:38;;;;;;;6.10;2.23;;;19.00;73.70;;;19.43;nan;100631.09;4986156;28;20634;-67
2023/06/16 02:22:05;;;;;;;2.63;2.47;;;19.00;73.80;;;19.40;nan;100642.00;4992448;28;20676;-67
2023/06/16 02:24:33;;;;;;;2.70;2.50;;;19.00;73.80;;;19.36;nan;100640.69;4989138;28;20678;-66
2023/06/16 02:27:00;;;;;;;2.60;2.40;;;19.00;74.10;;;19.28;nan;100638.03;4983182;28;20634;-66
2023/06/16 02:29:27;;;;;;;2.47;2.27;;;18.90;74.10;;;19.29;nan;100639.69;4998715;28;20642;-66
2023/06/16 02:31:54;;;;;;;3.53;2.60;;;18.90;74.30;;;19.27;nan;100636.41;4995214;28;20649;-66
2023/06/16 02:34:21;;;;;;;2.93;2.50;;;18.80;74.40;;;19.23;nan;100641.16;4971286;28;20651;-66
2023/06/16 02:36:50;;;;;;;3.77;3.10;;;18.80;74.40;;;19.26;nan;100640.00;5000685;28;20660;-67
2023/06/16 02:39:18;;;;;;;3.60;2.93;;;18.80;74.70;;;19.33;nan;100646.31;5004269;28;21007;-66
2023/06/16 02:41:46;;;;;;;2.47;2.27;;;18.90;74.60;;;19.36;nan;100637.25;5003900;28;21040;-66
2023/06/16 02:44:13;;;;;;;2.53;2.33;;;18.90;74.50;;;19.36;nan;100638.06;5010159;28;20658;-66
2023/06/16 02:46:40;;;;;;;2.70;2.47;;;18.90;74.50;;;19.38;nan;100638.72;5000340;28;20645;-66
2023/06/16 02:49:07;;;;;;;2.93;2.70;;;18.90;74.50;;;19.38;nan;100632.63;4986653;28;20631;-66
2023/06/16 02:51:34;;;;;;;3.77;2.93;;;18.90;74.50;;;19.34;nan;100645.31;4990357;28;20619;-66
2023/06/16 02:54:02;;;;;;;3.20;2.90;;;18.90;74.70;;;19.30;nan;100646.63;5005877;28;20650;-65
2023/06/16 02:56:29;;;;;;;2.67;2.37;;;18.90;75.00;;;19.27;nan;100645.13;4991527;28;20646;-66
2023/06/16 02:58:57;;;;;;;3.13;2.87;;;18.90;75.00;;;19.26;nan;100640.84;4992150;28;21012;-65
2023/06/16 03:01:25;;;;;;;3.97;2.53;;;18.80;75.20;;;19.24;nan;100642.84;4990335;28;20670;-66
2023/06/16 03:03:52;;;;;;;2.80;2.50;;;18.80;75.30;;;19.22;nan;100636.88;4987325;28;20721;-66
2023/06/16 03:06:19;;;;;;;3.30;2.50;;;18.80;75.50;;;19.19;nan;100642.50;4990117;28;20626;-67
2023/06/16 03:08:46;;;;;;;3.00;2.70;;;18.80;75.60;;;19.19;nan;100646.94;4971964;28;20723;-67
2023/06/16 03:11:14;;;;;;;3.40;3.10;;;18.70;75.70;;;19.22;nan;100646.63;4992068;28;20610;-67
2023/06/16 03:13:41;;;;;;;4.73;3.00;;;18.80;75.60;;;19.24;nan;100640.19;4989858;28;21189;-66
2023/06/16 03:16:08;;;;;;;2.90;2.70;;;18.80;75.80;;;19.22;nan;100638.69;4953906;28;20782;-66
2023/06/16 03:18:35;;;;;;;3.00;2.70;;;18.80;75.70;;;19.23;nan;100635.03;4971945;28;21066;-66
2023/06/16 03:21:02;;;;;;;3.20;2.90;;;18.80;75.90;;;19.22;nan;100641.34;4980870;28;20690;-65
2023/06/16 03:23:30;;;;;;;2.43;2.33;;;18.80;75.80;;;19.22;nan;100644.81;4985670;28;20615;-66
2023/06/16 03:25:58;;;;;;;3.27;2.97;;;18.80;75.80;;;19.25;nan;100638.38;4984208;28;20635;-66
2023/06/16 03:28:25;;;;;;;3.03;2.63;;;18.80;76.00;;;19.29;nan;100645.00;4982286;28;22044;-66
2023/06/16 03:30:55;;;;;;;2.60;2.40;;;18.80;75.70;;;19.32;nan;100649.94;4984638;28;20876;-66
2023/06/16 03:33:21;;;;;;;3.23;2.93;;;18.90;75.80;;;19.38;nan;100649.28;4990406;28;20625;-66
2023/06/16 03:35:48;;;;;;;3.90;2.67;;;18.90;75.30;;;19.42;nan;100648.00;4986503;28;20678;-66
2023/06/16 03:38:15;;;;;;;2.73;2.53;;;18.90;75.20;;;19.41;nan;100651.63;4990746;28;20630;-67
2023/06/16 03:40:42;;;;;;;2.80;2.60;;;18.90;74.90;;;19.36;nan;100653.94;4989083;28;20641;-67
2023/06/16 03:43:10;;;;;;;2.57;2.43;;;18.90;75.20;;;19.31;nan;100650.94;4989250;28;21028;-66
2023/06/16 03:45:37;;;;;;;2.53;2.33;;;18.90;75.50;;;19.31;nan;100656.22;4990277;28;20662;-66
2023/06/16 03:48:04;;;;;;;3.10;2.73;;;18.80;75.20;;;19.28;nan;100654.72;4985433;28;20638;-67
2023/06/16 03:50:32;;;;;;;2.40;2.30;;;18.80;75.40;;;19.28;nan;100654.72;4986979;28;20639;-66
2023/06/16 03:52:59;;;;;;;7.20;2.20;;;18.80;75.50;;;19.30;nan;100646.63;4986197;28;20649;-66
2023/06/16 03:55:42;;;;;;;2.97;2.77;;;18.90;75.40;;;19.31;nan;100658.88;4985506;28;20669;-67
2023/06/16 03:58:10;;;;;;;3.43;2.33;;;18.90;75.30;;;19.27;nan;100654.91;4974278;28;21193;-66
2023/06/16 04:00:37;;;;;;;3.03;2.50;;;18.90;75.30;;;19.25;nan;100659.53;5008964;28;21216;-66
2023/06/16 04:03:04;;;;;;;4.00;2.77;;;18.80;75.50;;;19.28;nan;100657.38;5004007;28;20998;-68
2023/06/16 04:05:32;;;;;;;3.70;3.00;;;18.90;75.70;;;19.33;nan;100660.38;4988628;28;20651;-65
2023/06/16 04:07:59;;;;;;;2.90;2.70;;;18.90;75.90;;;19.47;nan;100661.53;4973025;28;21110;-66
2023/06/16 04:10:27;;;;;;;3.17;2.90;;;19.00;75.40;;;19.66;nan;100663.81;4967487;28;20656;-67
2023/06/16 04:12:54;;;;;;;5.80;2.90;;;19.10;75.20;;;19.86;nan;100659.00;4985066;28;20638;-68
2023/06/16 04:15:21;;;;;;;2.70;2.60;;;19.40;74.50;;;20.00;nan;100664.41;4985339;28;20685;-67
2023/06/16 04:17:48;;;;;;;3.30;3.00;;;19.50;74.60;;;20.21;nan;100671.03;4987259;28;20642;-66
2023/06/16 04:20:15;;;;;;;3.77;3.23;;;19.70;73.30;;;20.35;nan;100665.81;4990572;28;21478;-67
2023/06/16 04:22:42;;;;;;;5.30;3.43;;;19.90;73.30;;;20.44;nan;100669.25;4983879;28;21443;-65
2023/06/16 04:25:11;;;;;;;3.30;3.00;;;20.00;72.40;;;20.54;nan;100672.53;4990738;28;20677;-68
2023/06/16 04:27:38;;;;;;;2.60;2.40;;;20.10;72.10;;;20.72;nan;100671.25;4993488;28;21173;-66
2023/06/16 04:30:06;;;;;;;3.10;2.90;;;20.20;71.70;;;20.82;nan;100674.53;4972703;28;21010;-67
2023/06/16 04:32:35;;;;;;;2.73;2.53;;;20.30;71.50;;;20.96;nan;100664.97;4973563;28;21201;-65
2023/06/16 04:35:04;;;;;;;3.40;3.10;;;20.50;71.40;;;21.07;nan;100675.22;4990929;28;20677;-66
2023/06/16 04:37:32;;;;;;;3.30;3.00;;;20.60;71.10;;;21.22;nan;100665.47;4991413;28;21177;-65
2023/06/16 04:40:00;;;;;;;4.13;3.20;;;20.70;70.70;;;21.27;nan;100675.56;4995387;28;20646;-66
2023/06/16 04:42:28;;;;;;;4.93;3.97;;;20.80;70.70;;;21.39;nan;100669.66;4994056;28;20657;-66
2023/06/16 04:44:55;;;;;;;7.07;3.33;;;20.90;70.50;;;21.50;nan;100676.38;4992131;28;20725;-66
2023/06/16 04:47:22;;;;;;;6.23;3.60;;;21.00;70.20;;;21.62;nan;100662.47;4993932;28;20632;-67
2023/06/16 04:49:49;;;;;;;5.30;3.30;;;21.10;70.10;;;21.82;nan;100667.25;4985133;28;20642;-66
2023/06/16 04:52:16;;;;;;;3.70;3.40;;;21.30;69.70;;;22.01;nan;100661.44;4987749;28;20623;-66
2023/06/16 04:54:44;;;;;;;4.23;3.40;;;21.50;69.30;;;22.18;nan;100670.88;4973621;28;21647;-67
2023/06/16 04:57:11;;;;;;;4.60;3.20;;;21.70;68.80;;;22.35;nan;100669.66;4981574;28;20641;-65
2023/06/16 04:59:37;;;;;;;3.80;3.50;;;21.80;68.60;;;22.48;nan;100669.00;4992716;28;20653;-67
2023/06/16 05:02:05;;;;;;;4.30;3.80;;;22.00;68.20;;;22.60;nan;100675.53;4991261;28;20681;-65
2023/06/16 05:04:33;;;;;;;4.10;3.70;;;22.10;67.90;;;22.78;nan;100676.78;4988463;28;22054;-66
2023/06/16 05:07:00;;;;;;;6.30;3.80;;;22.20;67.70;;;22.98;nan;100683.13;4992986;28;20590;-67
2023/06/16 05:09:27;;;;;;;5.07;3.47;;;22.40;67.10;;;23.15;nan;100681.03;4990420;28;20626;-65
2023/06/16 05:11:54;;;;;;;4.03;3.60;;;22.60;66.60;;;23.30;nan;100673.78;4993826;28;21236;-67
2023/06/16 05:14:21;;;;;;;3.43;3.13;;;22.80;66.40;;;23.48;nan;100673.38;4992947;28;20650;-67
2023/06/16 05:16:48;;;;;;;3.93;3.63;;;22.90;66.20;;;23.66;nan;100681.72;5002837;28;20633;-67
2023/06/16 05:19:15;;;;;;;5.10;3.13;;;23.10;65.90;;;23.75;nan;100670.72;5004539;28;21024;-68
2023/06/16 05:21:42;;;;;;;5.43;4.27;;;23.20;65.60;;;23.96;nan;100677.81;4993923;28;20657;-67
2023/06/16 05:24:09;;;;;;;8.63;3.30;;;23.40;65.00;;;24.08;nan;100673.63;5011725;28;20735;-67
2023/06/16 05:26:37;;;;;;;4.43;3.80;;;23.60;64.60;;;24.18;nan;100675.94;5009684;28;20662;-66
2023/06/16 05:29:04;;;;;;;4.23;3.50;;;23.70;64.30;;;24.24;nan;100678.63;4992172;28;20649;-67
2023/06/16 05:31:31;;;;;;;4.00;3.70;;;23.70;64.50;;;24.42;nan;100678.94;4993828;28;20684;-67
2023/06/16 05:33:58;;;;;;;4.63;3.90;;;23.90;64.60;;;24.60;nan;100686.38;4992686;28;20665;-66
2023/06/16 05:36:25;;;;;;;3.13;2.57;;;24.10;64.10;;;24.62;nan;100687.81;4992355;28;20652;-67
2023/06/16 05:38:52;;;;;;;4.10;3.67;;;24.10;63.00;;;24.52;nan;100679.38;4993695;28;20642;-67
2023/06/16 05:41:23;;;;;;;3.97;3.67;;;24.10;62.90;;;24.71;nan;100688.47;4991904;28;20672;-64
2023/06/16 05:43:57;;;;;;;4.73;4.00;;;24.20;63.00;;;24.83;nan;100681.53;4993229;28;20660;-66
2023/06/16 05:46:24;;;;;;;4.10;3.70;;;24.40;62.80;;;25.01;nan;100689.81;4993852;28;20639;-66
2023/06/16 05:48:51;;;;;;;4.00;3.03;;;24.50;62.60;;;25.10;nan;100687.78;4985724;28;20749;-66
2023/06/16 05:51:18;;;;;;;3.37;3.07;;;24.60;61.50;;;25.20;nan;100688.19;4973787;28;21202;-67
2023/06/16 05:53:45;;;;;;;7.60;2.77;;;24.70;61.70;;;25.53;nan;100693.59;5010516;28;21259;-66
2023/06/16 05:56:12;;;;;;;4.23;3.47;;;25.00;61.20;;;25.57;nan;100684.97;4983300;28;20642;-66
2023/06/16 05:58:39;;;;;;;2.83;2.63;;;25.10;60.30;;;25.53;nan;100686.41;4984176;28;20634;-66
2023/06/16 06:01:06;;;;;;;4.80;3.50;;;25.10;59.90;;;25.67;nan;100687.22;4994016;28;20645;-66
2023/06/16 06:03:33;;;;;;;2.70;2.50;;;25.20;60.50;;;25.81;nan;100702.22;4989576;28;20622;-64
2023/06/16 06:06:01;;;;;;;2.87;2.67;;;25.30;60.20;;;25.95;nan;100693.97;4991875;28;20626;-66
2023/06/16 06:08:28;;;;;;;4.00;3.20;;;25.40;60.00;;;26.11;nan;100704.25;5005337;28;21052;-68
2023/06/16 06:10:55;;;;;;;3.70;3.40;;;25.60;59.40;;;25.96;nan;100708.19;5000951;28;20630;-67
2023/06/16 06:13:22;;;;;;;2.57;2.37;;;25.50;59.50;;;26.06;nan;100709.41;4974199;28;20614;-68
2023/06/16 06:15:49;;;;;;;5.57;3.57;;;25.50;59.10;;;26.19;nan;100707.75;4989054;28;20666;-67
2023/06/16 06:18:17;;;;;;;4.33;3.93;;;25.60;58.90;;;26.31;nan;100714.06;4985490;28;20644;-68
2023/06/16 06:20:45;;;;;;;3.43;3.10;;;25.80;58.70;;;26.47;nan;100718.97;4978755;28;20634;-68
2023/06/16 06:23:12;;;;;;;3.57;3.30;;;25.80;58.90;;;26.53;nan;100721.63;4964903;28;21030;-67
2023/06/16 06:25:42;;;;;;;3.30;3.00;;;25.90;58.50;;;26.74;nan;100728.56;4990764;28;21205;-67
2023/06/16 06:28:09;;;;;;;6.73;3.40;;;26.10;58.40;;;27.00;nan;100728.44;4991700;28;20638;-67
2023/06/16 06:30:36;;;;;;;3.30;2.97;;;26.40;58.40;;;27.43;nan;100732.09;4991815;28;20645;-67
2023/06/16 06:33:04;;;;;;;3.50;3.30;;;26.80;57.70;;;27.75;nan;100726.69;4990663;28;21216;-67
2023/06/16 06:35:31;;;;;;;3.27;3.00;;;27.10;57.20;;;28.35;nan;100731.28;5010797;28;20657;-68
2023/06/16 06:37:58;;;;;;;4.63;4.23;;;27.70;56.90;;;28.80;nan;100743.34;5000387;28;20672;-67
2023/06/16 06:40:25;;;;;;;2.93;2.77;;;28.10;56.20;;;29.35;nan;100737.84;5010379;28;20642;-68
2023/06/16 06:42:53;;;;;;;4.90;3.67;;;28.60;55.40;;;29.90;nan;100736.56;5001658;28;20657;-66
2023/06/16 06:45:20;;;;;;;2.13;2.03;;;29.20;54.80;;;30.33;nan;100745.09;4989726;28;20666;-67
2023/06/16 06:47:47;;;;;;;3.50;3.20;;;29.70;53.90;;;30.73;nan;100745.13;4989037;28;20638;-66
2023/06/16 06:50:14;;;;;;;4.07;3.77;;;30.10;53.50;;;30.90;nan;100753.31;4988126;28;21235;-66
2023/06/16 06:52:41;;;;;;;3.63;3.33;;;30.40;53.10;;;31.10;nan;100756.38;4991525;28;20669;-68
2023/06/16 06:55:09;;;;;;;3.90;3.60;;;30.70;52.10;;;31.17;nan;100755.19;4986833;28;20670;-68
2023/06/16 06:57:36;;;;;;;4.50;3.23;;;30.80;52.20;;;31.71;nan;100759.09;4991857;28;20661;-67
2023/06/16 07:00:03;;;;;;;3.80;3.50;;;31.20;52.00;;;31.78;nan;100754.34;5003060;28;20625;-66
2023/06/16 07:02:30;;;;;;;4.40;4.00;;;31.40;51.20;;;32.44;nan;100766.13;4991506;28;21232;-67
2023/06/16 07:04:57;;;;;;;4.53;4.13;;;31.80;51.00;;;32.69;nan;100753.78;4986721;28;20723;-67
2023/06/16 07:07:25;;;;;;;4.20;3.90;;;32.10;50.40;;;33.24;nan;100769.00;4991419;28;20626;-65
2023/06/16 07:09:51;;;;;;;2.80;2.60;;;32.50;50.10;;;33.60;nan;100771.00;4997211;28;21391;-67
2023/06/16 07:12:18;;;;;;;4.30;3.40;;;33.00;49.10;;;33.65;nan;100773.72;4994221;28;21001;-66
2023/06/16 07:14:47;;;;;;;3.73;3.50;;;33.20;48.90;;;34.17;nan;100771.16;4990107;28;20658;-68
2023/06/16 07:17:14;;;;;;;3.30;2.83;;;33.60;48.60;;;34.93;nan;100775.88;4972172;28;20871;-67
2023/06/16 07:19:41;;;;;;;4.33;3.93;;;34.20;48.10;;;35.52;nan;100778.19;5008552;28;20624;-67
2023/06/16 07:22:09;;;;;;;3.40;3.10;;;34.90;47.40;;;35.83;nan;100777.09;4990536;28;20689;-67
2023/06/16 07:24:36;;;;;;;3.60;3.30;;;35.30;46.90;;;35.77;nan;100780.91;4995138;28;20653;-68
2023/06/16 07:27:04;;;;;;;3.40;3.10;;;35.00;46.40;;;36.06;nan;100784.69;4990709;28;20638;-65
2023/06/16 07:29:31;;;;;;;4.03;2.90;;;35.80;46.70;;;36.42;nan;100796.31;4989907;28;21023;-67
2023/06/16 07:31:58;;;;;;;4.30;4.00;;;35.80;46.20;;;36.97;nan;100782.50;4988764;28;20638;-67
2023/06/16 07:34:26;;;;;;;3.40;3.20;;;36.40;45.70;;;37.38;nan;100780.38;5006761;28;20733;-67
2023/06/16 07:36:52;;;;;;;2.70;2.60;;;36.90;45.10;;;36.97;nan;100787.16;5010010;28;21192;-66
2023/06/16 07:39:21;;;;;;;3.70;3.40;;;36.60;45.40;;;37.34;nan;100776.59;4998396;28;20638;-67
2023/06/16 07:41:48;;;;;;;3.77;3.47;;;36.90;45.40;;;37.81;nan;100782.22;4974952;28;20649;-69
2023/06/16 07:44:15;;;;;;;3.30;3.10;;;37.30;45.00;;;38.21;nan;100780.97;4995797;28;21256;-68
2023/06/16 07:46:45;;;;;;;4.30;4.00;;;37.90;45.10;;;38.69;nan;100777.22;4994853;28;20614;-68
2023/06/16 07:49:16;;;;;;;5.23;3.80;;;38.20;43.90;;;38.97;nan;100778.19;4987873;28;20664;-69
2023/06/16 07:51:43;;;;;;;3.57;3.37;;;38.50;43.40;;;39.09;nan;100785.91;4990259;28;20606;-68
2023/06/16 07:54:11;;;;;;;3.50;3.30;;;38.70;43.20;;;38.76;nan;100776.84;5003975;28;20658;-67
2023/06/16 07:56:38;;;;;;;3.27;3.10;;;38.70;43.30;;;39.27;nan;100777.75;5010613;28;21176;-65
2023/06/16 07:59:06;;;;;;;6.20;4.00;;;38.90;43.10;;;39.84;nan;100784.75;5009357;28;21268;-68
2023/06/16 08:01:33;;;;;;;3.33;3.10;;;39.40;43.10;;;40.31;nan;100782.81;4987071;28;20638;-68
2023/06/16 08:04:00;;;;;;;3.70;3.50;;;40.00;42.70;;;40.56;nan;100782.31;4982243;28;20694;-66
2023/06/16 08:06:28;;;;;;;2.60;2.53;;;40.20;42.10;;;40.82;nan;100784.25;4983917;28;20635;-67
2023/06/16 08:08:56;;;;;;;3.53;3.33;;;40.40;41.90;;;40.79;nan;100773.06;5002490;28;20624;-67
2023/06/16 08:11:23;;;;;;;4.13;3.73;;;40.50;41.60;;;40.98;nan;100780.03;5001960;28;21260;-67
2023/06/16 08:13:50;;;;;;;3.67;3.50;;;40.70;41.60;;;41.26;nan;100788.19;4988307;28;20622;-67
2023/06/16 08:16:17;;;;;;;3.30;3.10;;;41.00;40.90;;;41.89;nan;100780.59;4999227;28;20648;-67
2023/06/16 08:18:44;;;;;;;3.80;3.60;;;41.40;40.80;;;41.91;nan;100783.81;4989458;28;20743;-67
2023/06/16 08:21:11;;;;;;;2.83;2.73;;;41.70;40.30;;;41.74;nan;100783.72;4988454;28;20614;-68
2023/06/16 08:23:38;;;;;;;3.33;3.23;;;41.60;40.70;;;41.71;nan;100787.06;4988930;28;20662;-67
2023/06/16 08:26:05;;;;;;;2.80;2.70;;;41.70;40.60;;;41.74;nan;100778.25;4990486;28;20634;-68
2023/06/16 08:28:32;;;;;;;3.60;3.30;;;41.70;40.30;;;41.89;nan;100777.84;4994002;28;20644;-67
2023/06/16 08:30:59;;;;;;;3.23;3.03;;;41.90;40.40;;;41.65;nan;100771.91;4979696;28;20603;-67
2023/06/16 08:33:26;;;;;;;3.30;3.20;;;41.70;40.00;;;42.45;nan;100771.63;4987800;28;20639;-67
2023/06/16 08:35:53;;;;;;;3.77;3.57;;;42.10;39.60;;;42.85;nan;100775.94;4989069;28;21264;-69
2023/06/16 08:38:20;;;;;;;3.50;3.30;;;42.70;39.70;;;42.83;nan;100774.63;4988775;28;21199;-67
2023/06/16 08:40:48;;;;;;;3.77;3.47;;;42.60;39.30;;;43.00;nan;100774.69;4987904;28;20618;-69
2023/06/16 08:43:16;;;;;;;3.33;3.23;;;42.80;39.50;;;42.68;nan;100773.16;4974651;28;20736;-66
2023/06/16 08:45:45;;;;;;;3.50;3.30;;;42.50;39.00;;;43.12;nan;100775.66;4982342;28;20662;-66
2023/06/16 08:48:12;;;;;;;3.07;2.87;;;42.90;38.80;;;43.79;nan;100773.16;4986754;28;21355;-68
2023/06/16 08:50:39;;;;;;;3.33;3.23;;;43.30;38.60;;;43.81;nan;100776.38;4987409;28;20693;-68
2023/06/16 08:53:11;;;;;;;3.67;3.37;;;43.70;38.00;;;43.79;nan;100781.41;4988907;28;20942;-68
2023/06/16 08:55:42;;;;;;;3.70;3.50;;;43.70;38.00;;;43.64;nan;100770.16;4989440;28;21074;-67
2023/06/16 08:58:11;;;;;;;3.47;3.37;;;43.70;37.60;;;43.13;nan;100768.19;4988504;28;20645;-68
2023/06/16 09:00:41;;;;;;;3.23;3.13;;;43.40;37.40;;;43.69;nan;100767.19;4968325;28;20641;-67
2023/06/16 09:03:08;;;;;;;3.03;2.93;;;43.70;37.80;;;43.68;nan;100762.84;4988561;28;21288;-65
2023/06/16 09:05:36;;;;;;;3.50;3.20;;;43.80;37.60;;;43.95;nan;100770.69;4987580;28;20661;-68
2023/06/16 09:08:05;;;;;;;3.60;3.50;;;44.00;37.50;;;43.73;nan;100760.72;4989305;28;20623;-68
2023/06/16 09:10:35;;;;;;;3.20;3.10;;;43.80;37.80;;;43.81;nan;100759.09;4987032;28;20637;-67
2023/06/16 09:13:02;;;;;;;3.30;3.20;;;45.10;37.70;;;43.76;nan;100762.03;4973712;28;20748;-68
2023/06/16 09:15:33;;;;;;;3.00;2.90;;;43.70;37.00;;;43.93;nan;100754.53;4997775;28;21333;-66
2023/06/16 09:18:08;;;;;;;3.27;3.17;;;43.90;37.00;;;43.90;nan;100763.41;4981116;28;20637;-68
2023/06/16 09:20:39;;;;;;;4.10;3.77;;;43.80;36.50;;;44.40;nan;100766.28;4993821;28;20617;-67
2023/06/16 09:23:08;;;;;;;3.43;3.27;;;44.20;36.30;;;44.78;nan;100765.41;4988744;28;20665;-67
2023/06/16 09:25:35;;;;;;;4.17;3.77;;;44.60;36.20;;;44.27;nan;100767.34;4990403;28;20665;-68
2023/06/16 09:28:09;;;;;;;3.53;3.43;;;44.20;36.30;;;44.56;nan;100759.09;5001146;28;21472;-68
2023/06/16 09:30:36;;;;;;;3.57;3.40;;;44.40;36.40;;;44.69;nan;100751.72;5009693;28;20676;-66
2023/06/16 09:33:06;;;;;;;3.50;3.40;;;44.70;36.60;;;44.62;nan;100754.19;4992654;28;21255;-68
2023/06/16 09:35:33;;;;;;;3.40;3.30;;;44.60;36.50;;;44.79;nan;100750.53;5007754;28;20669;-67
2023/06/16 09:38:03;;;;;;;3.97;3.67;;;44.70;36.30;;;44.72;nan;100756.56;4996774;28;20648;-68
2023/06/16 09:40:32;;;;;;;3.27;3.17;;;44.90;36.10;;;44.71;nan;100756.88;4994773;28;20671;-69
2023/06/16 09:43:03;;;;;;;3.63;3.43;;;44.80;35.80;;;44.65;nan;100756.28;4974707;28;20666;-68
2023/06/16 09:45:32;;;;;;;3.20;3.10;;;44.80;35.90;;;44.47;nan;100746.53;4992034;28;20708;-69
2023/06/16 09:48:05;;;;;;;2.77;2.70;;;44.60;35.40;;;44.46;nan;100747.66;4989125;28;20654;-68
2023/06/16 09:50:33;;;;;;;3.37;3.17;;;44.60;35.60;;;44.48;nan;100746.19;4972878;28;20613;-65
2023/06/16 09:53:06;;;;;;;2.93;2.83;;;44.40;35.50;;;43.98;nan;100747.22;4990641;28;20637;-67
2023/06/16 09:55:40;;;;;;;3.10;3.00;;;44.20;35.90;;;42.80;nan;100745.09;4991331;28;20672;-68
2023/06/16 09:58:08;;;;;;;3.40;3.30;;;43.10;35.90;;;42.68;nan;100734.72;4994685;28;20641;-67
2023/06/16 10:00:35;;;;;;;3.07;2.97;;;42.50;36.40;;;42.40;nan;100733.38;4993267;28;20716;-67
2023/06/16 10:03:07;;;;;;;3.37;3.23;;;42.20;36.20;;;42.02;nan;100733.06;4974675;28;20670;-66
2023/06/16 10:05:37;;;;;;;3.40;3.20;;;41.70;36.70;;;40.86;nan;100721.50;4992423;28;20658;-66
2023/06/16 10:08:06;;;;;;;3.50;3.30;;;40.60;37.00;;;39.83;nan;100727.66;4974292;28;20637;-68
2023/06/16 10:10:36;;;;;;;3.70;3.50;;;39.30;38.10;;;39.22;nan;100728.72;4988284;28;20638;-69
2023/06/16 10:13:06;;;;;;;3.50;3.30;;;38.60;38.00;;;38.42;nan;100714.25;4976323;28;20718;-68
2023/06/16 10:15:38;;;;;;;3.47;3.17;;;37.80;38.60;;;37.58;nan;100709.44;4996393;28;21276;-66
2023/06/16 10:18:07;;;;;;;3.30;3.10;;;36.90;38.90;;;36.69;nan;100692.66;4971926;28;20857;-67
2023/06/16 10:20:38;;;;;;;3.77;3.57;;;36.10;39.60;;;35.79;nan;100710.84;4992898;28;20634;-67
2023/06/16 10:23:06;;;;;;;3.90;3.60;;;35.10;40.40;;;35.25;nan;100707.06;4973667;28;20651;-67
2023/06/16 10:25:34;;;;;;;3.70;3.20;;;34.60;41.00;;;34.64;nan;100697.97;4992859;28;20658;-67
2023/06/16 10:28:07;;;;;;;3.50;3.30;;;33.90;41.10;;;34.18;nan;100700.47;4992676;28;20603;-68
2023/06/16 10:30:35;;;;;;;2.07;1.97;;;33.60;44.00;;;33.41;nan;100697.50;5010824;28;20637;-67